LDA9054 LEPA-LOWW
Flight info
| Callsign | LDA9054 |
|---|---|
| Flight time | 2h 5m |
| Altitude | 38000 |
| Route | ISTER/N0445F400 DCT NIVDA DCT OMEDA DCT RAPUR DCT TORTU DCT ERTEV DCT IDONA/N0448F390 DCT BARPI DCT LAPNA LAPNA2W |
| Aircraft | B738/M-SDE2E3FGHIRWXY/LB1 |
Departure
| Time | 2026-04-21 15:06 |
|---|---|
| Airport | Palma de Mallorca Airport (LEPA) |
Arrival
| Time | 2026-04-21 17:11 |
|---|---|
| Airport | Vienna International Airport (LOWW) |
| Time | Latitude | Longitude | Altitude | Speed | Heading |
|---|---|---|---|---|---|
| 2026-04-21 14:35 | 39.54946 | 2.73768 | 37 ft | 0 kts | 239° |
| 2026-04-21 14:58 | 39.54954 | 2.73787 | 37 ft | 4 kts | 239° |
| 2026-04-21 14:58 | 39.54968 | 2.73817 | 37 ft | 4 kts | 239° |
| 2026-04-21 14:59 | 39.54982 | 2.73846 | 37 ft | 2 kts | 239° |
| 2026-04-21 14:59 | 39.54991 | 2.73874 | 37 ft | 4 kts | 281° |
| 2026-04-21 14:59 | 39.54977 | 2.73898 | 36 ft | 4 kts | 328° |
| 2026-04-21 14:59 | 39.54968 | 2.73906 | 37 ft | 1 kts | 329° |
| 2026-04-21 15:00 | 39.54967 | 2.73906 | 37 ft | 0 kts | 329° |
| 2026-04-21 15:01 | 39.54969 | 2.73905 | 37 ft | 2 kts | 329° |
| 2026-04-21 15:02 | 39.55007 | 2.73874 | 36 ft | 11 kts | 328° |
| 2026-04-21 15:02 | 39.55091 | 2.73807 | 37 ft | 15 kts | 329° |
| 2026-04-21 15:02 | 39.55191 | 2.73812 | 36 ft | 16 kts | 17° |
| 2026-04-21 15:02 | 39.55293 | 2.73758 | 37 ft | 17 kts | 329° |
| 2026-04-21 15:03 | 39.55404 | 2.73668 | 36 ft | 21 kts | 328° |
| 2026-04-21 15:03 | 39.55538 | 2.73563 | 37 ft | 23 kts | 329° |
| 2026-04-21 15:03 | 39.55654 | 2.73516 | 37 ft | 16 kts | 29° |
| 2026-04-21 15:03 | 39.55717 | 2.73633 | 37 ft | 16 kts | 58° |
| 2026-04-21 15:04 | 39.55774 | 2.73754 | 36 ft | 16 kts | 58° |
| 2026-04-21 15:04 | 39.55839 | 2.73890 | 37 ft | 20 kts | 58° |
| 2026-04-21 15:04 | 39.55916 | 2.74055 | 37 ft | 23 kts | 58° |
| 2026-04-21 15:04 | 39.56005 | 2.74243 | 36 ft | 26 kts | 59° |
| 2026-04-21 15:05 | 39.56087 | 2.74411 | 36 ft | 17 kts | 55° |
| 2026-04-21 15:05 | 39.56252 | 2.74349 | 37 ft | 16 kts | 273° |
| 2026-04-21 15:05 | 39.56186 | 2.74186 | 36 ft | 35 kts | 239° |
| 2026-04-21 15:06 | 39.55907 | 2.73596 | 37 ft | 118 kts | 238° |
| 2026-04-21 15:06 | 39.55388 | 2.72484 | 414 ft | 153 kts | 239° |
| 2026-04-21 15:06 | 39.54838 | 2.71297 | 1438 ft | 156 kts | 239° |
| 2026-04-21 15:06 | 39.54241 | 2.70039 | 2200 ft | 176 kts | 238° |
| 2026-04-21 15:07 | 39.53564 | 2.68599 | 2811 ft | 195 kts | 239° |
| 2026-04-21 15:07 | 39.52887 | 2.67100 | 3834 ft | 187 kts | 238° |
| 2026-04-21 15:07 | 39.52181 | 2.65626 | 4626 ft | 199 kts | 236° |
| 2026-04-21 15:07 | 39.51432 | 2.64078 | 5338 ft | 206 kts | 237° |
| 2026-04-21 15:08 | 39.50628 | 2.62442 | 5767 ft | 224 kts | 236° |
| 2026-04-21 15:08 | 39.49650 | 2.60813 | 6230 ft | 237 kts | 221° |
| 2026-04-21 15:08 | 39.48205 | 2.59667 | 6740 ft | 255 kts | 207° |
| 2026-04-21 15:08 | 39.46533 | 2.58568 | 7072 ft | 281 kts | 207° |
| 2026-04-21 15:09 | 39.44755 | 2.57424 | 7851 ft | 287 kts | 203° |
| 2026-04-21 15:09 | 39.42789 | 2.56872 | 8585 ft | 298 kts | 179° |
| 2026-04-21 15:09 | 39.40712 | 2.57449 | 9155 ft | 314 kts | 155° |
| 2026-04-21 15:09 | 39.38957 | 2.59166 | 9771 ft | 325 kts | 137° |
| 2026-04-21 15:10 | 39.37346 | 2.61248 | 10535 ft | 332 kts | 136° |
| 2026-04-21 15:10 | 39.35684 | 2.63411 | 10988 ft | 349 kts | 136° |
| 2026-04-21 15:10 | 39.33923 | 2.65660 | 11516 ft | 360 kts | 137° |
| 2026-04-21 15:10 | 39.32106 | 2.67936 | 12222 ft | 366 kts | 137° |
| 2026-04-21 15:11 | 39.30258 | 2.70223 | 12966 ft | 370 kts | 137° |
| 2026-04-21 15:11 | 39.28390 | 2.72535 | 13738 ft | 374 kts | 136° |
| 2026-04-21 15:11 | 39.26902 | 2.75313 | 14462 ft | 383 kts | 113° |
| 2026-04-21 15:11 | 39.26244 | 2.78653 | 15276 ft | 387 kts | 95° |
| 2026-04-21 15:12 | 39.26182 | 2.82070 | 16170 ft | 387 kts | 90° |
| 2026-04-21 15:12 | 39.26171 | 2.85580 | 16920 ft | 392 kts | 89° |
| 2026-04-21 15:12 | 39.26532 | 2.89075 | 17589 ft | 397 kts | 71° |
| 2026-04-21 15:12 | 39.27725 | 2.92298 | 18292 ft | 400 kts | 59° |
| 2026-04-21 15:13 | 39.28652 | 2.94364 | 18774 ft | 402 kts | 58° |
| 2026-04-21 15:13 | 39.30578 | 2.98537 | 19676 ft | 408 kts | 58° |
| 2026-04-21 15:13 | 39.32040 | 3.01709 | 20337 ft | 412 kts | 58° |
| 2026-04-21 15:13 | 39.33481 | 3.04876 | 20980 ft | 416 kts | 58° |
| 2026-04-21 15:14 | 39.34939 | 3.08118 | 21622 ft | 419 kts | 58° |
| 2026-04-21 15:14 | 39.36402 | 3.11397 | 22204 ft | 423 kts | 58° |
| 2026-04-21 15:14 | 39.37876 | 3.14713 | 22782 ft | 427 kts | 58° |
| 2026-04-21 15:14 | 39.39368 | 3.18074 | 23323 ft | 432 kts | 58° |
| 2026-04-21 15:15 | 39.40868 | 3.21458 | 23880 ft | 435 kts | 58° |
| 2026-04-21 15:15 | 39.42377 | 3.24863 | 24421 ft | 439 kts | 58° |
| 2026-04-21 15:15 | 39.43913 | 3.28289 | 24948 ft | 441 kts | 57° |
| 2026-04-21 15:15 | 39.45487 | 3.31720 | 25465 ft | 445 kts | 57° |
| 2026-04-21 15:16 | 39.47080 | 3.35161 | 25947 ft | 448 kts | 57° |
| 2026-04-21 15:16 | 39.48690 | 3.38633 | 26408 ft | 450 kts | 57° |
| 2026-04-21 15:16 | 39.50307 | 3.42128 | 26868 ft | 453 kts | 57° |
| 2026-04-21 15:16 | 39.51926 | 3.45645 | 27321 ft | 456 kts | 57° |
| 2026-04-21 15:17 | 39.53535 | 3.49149 | 27731 ft | 459 kts | 57° |
| 2026-04-21 15:17 | 39.55176 | 3.52728 | 28147 ft | 461 kts | 57° |
| 2026-04-21 15:17 | 39.56822 | 3.56323 | 28562 ft | 464 kts | 57° |
| 2026-04-21 15:17 | 39.58468 | 3.59925 | 28968 ft | 466 kts | 57° |
| 2026-04-21 15:18 | 39.60104 | 3.63510 | 29333 ft | 469 kts | 57° |
| 2026-04-21 15:18 | 39.61788 | 3.67208 | 29680 ft | 471 kts | 57° |
| 2026-04-21 15:18 | 39.63440 | 3.70837 | 30045 ft | 473 kts | 57° |
| 2026-04-21 15:18 | 39.65114 | 3.74519 | 30424 ft | 475 kts | 57° |
| 2026-04-21 15:19 | 39.66794 | 3.78219 | 30758 ft | 477 kts | 57° |
| 2026-04-21 15:19 | 39.68483 | 3.81941 | 31024 ft | 480 kts | 57° |
| 2026-04-21 15:19 | 39.70183 | 3.85692 | 31290 ft | 483 kts | 57° |
| 2026-04-21 15:19 | 39.71893 | 3.89470 | 31619 ft | 484 kts | 57° |
| 2026-04-21 15:20 | 39.73578 | 3.93199 | 32046 ft | 482 kts | 57° |
| 2026-04-21 15:20 | 39.75271 | 3.96952 | 32493 ft | 480 kts | 57° |
| 2026-04-21 15:20 | 39.76960 | 4.00699 | 32859 ft | 480 kts | 57° |
| 2026-04-21 15:20 | 39.78645 | 4.04437 | 33202 ft | 480 kts | 57° |
| 2026-04-21 15:21 | 39.79786 | 4.06975 | 33436 ft | 480 kts | 57° |
| 2026-04-21 15:21 | 39.81467 | 4.10714 | 33828 ft | 478 kts | 57° |
| 2026-04-21 15:21 | 39.83122 | 4.14400 | 34189 ft | 478 kts | 57° |
| 2026-04-21 15:21 | 39.84796 | 4.18135 | 34504 ft | 478 kts | 57° |
| 2026-04-21 15:22 | 39.86472 | 4.21874 | 34833 ft | 477 kts | 57° |
| 2026-04-21 15:22 | 39.88147 | 4.25607 | 35172 ft | 477 kts | 57° |
| 2026-04-21 15:22 | 39.89823 | 4.29335 | 35459 ft | 477 kts | 57° |
| 2026-04-21 15:22 | 39.91498 | 4.33064 | 35732 ft | 477 kts | 57° |
| 2026-04-21 15:23 | 39.93174 | 4.36802 | 36054 ft | 476 kts | 57° |
| 2026-04-21 15:23 | 39.94823 | 4.40483 | 36372 ft | 475 kts | 57° |
| 2026-04-21 15:23 | 39.96487 | 4.44204 | 36634 ft | 476 kts | 57° |
| 2026-04-21 15:23 | 39.98161 | 4.47952 | 36842 ft | 477 kts | 57° |
| 2026-04-21 15:24 | 39.99832 | 4.51698 | 37118 ft | 477 kts | 57° |
| 2026-04-21 15:24 | 40.01495 | 4.55435 | 37421 ft | 476 kts | 57° |
| 2026-04-21 15:24 | 40.03155 | 4.59164 | 37666 ft | 476 kts | 57° |
| 2026-04-21 15:24 | 40.04820 | 4.62909 | 37901 ft | 476 kts | 57° |
| 2026-04-21 15:25 | 40.08395 | 4.70176 | 37946 ft | 478 kts | 49° |
| 2026-04-21 15:25 | 40.12655 | 4.76788 | 37928 ft | 471 kts | 45° |
| 2026-04-21 15:26 | 40.16932 | 4.83217 | 37935 ft | 467 kts | 46° |
| 2026-04-21 15:26 | 40.21128 | 4.89687 | 37937 ft | 466 kts | 46° |
| 2026-04-21 15:27 | 40.25274 | 4.96207 | 37932 ft | 465 kts | 47° |
| 2026-04-21 15:27 | 40.29371 | 5.02703 | 37938 ft | 465 kts | 47° |
| 2026-04-21 15:28 | 40.33495 | 5.09253 | 37937 ft | 465 kts | 47° |
| 2026-04-21 15:28 | 40.37619 | 5.15805 | 37931 ft | 465 kts | 47° |
| 2026-04-21 15:29 | 40.41711 | 5.22322 | 37928 ft | 466 kts | 47° |
| 2026-04-21 15:29 | 40.45838 | 5.28910 | 38033 ft | 468 kts | 47° |
| 2026-04-21 15:30 | 40.47907 | 5.32217 | 38274 ft | 468 kts | 47° |
| 2026-04-21 15:30 | 40.49973 | 5.35522 | 38557 ft | 467 kts | 47° |
| 2026-04-21 15:30 | 40.52030 | 5.38818 | 38841 ft | 465 kts | 47° |
| 2026-04-21 15:30 | 40.54085 | 5.42115 | 39062 ft | 465 kts | 47° |
| 2026-04-21 15:31 | 40.56113 | 5.45369 | 39251 ft | 466 kts | 47° |
| 2026-04-21 15:31 | 40.58168 | 5.48673 | 39442 ft | 466 kts | 47° |
| 2026-04-21 15:31 | 40.60230 | 5.51988 | 39610 ft | 467 kts | 47° |
| 2026-04-21 15:31 | 40.62286 | 5.55299 | 39766 ft | 468 kts | 47° |
| 2026-04-21 15:32 | 40.64345 | 5.58618 | 39910 ft | 468 kts | 47° |
| 2026-04-21 15:32 | 40.66415 | 5.61959 | 39916 ft | 471 kts | 47° |
| 2026-04-21 15:32 | 40.70534 | 5.68618 | 39927 ft | 470 kts | 47° |
| 2026-04-21 15:33 | 40.74654 | 5.75295 | 39925 ft | 469 kts | 47° |
| 2026-04-21 15:33 | 40.78763 | 5.81968 | 39925 ft | 467 kts | 47° |
| 2026-04-21 15:34 | 40.82853 | 5.88623 | 39925 ft | 466 kts | 47° |
| 2026-04-21 15:34 | 40.86937 | 5.95282 | 39925 ft | 466 kts | 47° |
| 2026-04-21 15:35 | 40.90991 | 6.01905 | 39928 ft | 466 kts | 47° |
| 2026-04-21 15:35 | 40.95065 | 6.08572 | 39931 ft | 466 kts | 47° |
| 2026-04-21 15:36 | 40.99142 | 6.15269 | 39926 ft | 467 kts | 47° |
| 2026-04-21 15:36 | 41.03216 | 6.21973 | 39926 ft | 467 kts | 47° |
| 2026-04-21 15:37 | 41.07294 | 6.28697 | 39928 ft | 468 kts | 47° |
| 2026-04-21 15:37 | 41.11354 | 6.35405 | 39926 ft | 469 kts | 47° |
| 2026-04-21 15:38 | 41.15443 | 6.42176 | 39925 ft | 470 kts | 47° |
| 2026-04-21 15:38 | 41.19533 | 6.48969 | 39929 ft | 470 kts | 47° |
| 2026-04-21 15:39 | 41.23619 | 6.55762 | 39924 ft | 470 kts | 47° |
| 2026-04-21 15:39 | 41.27726 | 6.62476 | 39926 ft | 470 kts | 46° |
| 2026-04-21 15:40 | 41.31900 | 6.69148 | 39932 ft | 469 kts | 46° |
| 2026-04-21 15:40 | 41.36071 | 6.75828 | 39935 ft | 468 kts | 46° |
| 2026-04-21 15:41 | 41.40215 | 6.82506 | 39934 ft | 468 kts | 46° |
| 2026-04-21 15:41 | 41.44331 | 6.89167 | 39938 ft | 467 kts | 46° |
| 2026-04-21 15:42 | 41.48464 | 6.95875 | 39930 ft | 467 kts | 46° |
| 2026-04-21 15:42 | 41.52591 | 7.02583 | 39938 ft | 467 kts | 46° |
| 2026-04-21 15:43 | 41.56712 | 7.09296 | 39935 ft | 467 kts | 46° |
| 2026-04-21 15:43 | 41.60829 | 7.16025 | 39931 ft | 467 kts | 46° |
| 2026-04-21 15:44 | 41.64915 | 7.22708 | 39935 ft | 467 kts | 46° |
| 2026-04-21 15:44 | 41.69022 | 7.29440 | 39936 ft | 467 kts | 46° |
| 2026-04-21 15:45 | 41.73130 | 7.36192 | 39938 ft | 467 kts | 46° |
| 2026-04-21 15:45 | 41.77203 | 7.42905 | 39936 ft | 467 kts | 46° |
| 2026-04-21 15:46 | 41.81301 | 7.49672 | 39937 ft | 467 kts | 46° |
| 2026-04-21 15:46 | 41.85399 | 7.56442 | 39935 ft | 467 kts | 46° |
| 2026-04-21 15:47 | 41.89452 | 7.63171 | 39935 ft | 466 kts | 46° |
| 2026-04-21 15:47 | 41.93532 | 7.69955 | 39934 ft | 466 kts | 46° |
| 2026-04-21 15:48 | 41.97615 | 7.76753 | 39930 ft | 467 kts | 46° |
| 2026-04-21 15:48 | 42.01666 | 7.83517 | 39927 ft | 467 kts | 46° |
| 2026-04-21 15:49 | 42.05736 | 7.90331 | 39925 ft | 467 kts | 46° |
| 2026-04-21 15:49 | 42.09808 | 7.97164 | 39926 ft | 466 kts | 46° |
| 2026-04-21 15:50 | 42.13846 | 8.03953 | 39926 ft | 466 kts | 46° |
| 2026-04-21 15:50 | 42.17903 | 8.10788 | 39926 ft | 467 kts | 46° |
| 2026-04-21 15:51 | 42.21959 | 8.17637 | 39927 ft | 467 kts | 46° |
| 2026-04-21 15:51 | 42.26006 | 8.24491 | 39924 ft | 466 kts | 46° |
| 2026-04-21 15:52 | 42.30030 | 8.31308 | 39923 ft | 466 kts | 45° |
| 2026-04-21 15:52 | 42.32285 | 8.34396 | 39919 ft | 458 kts | 34° |
| 2026-04-21 15:52 | 42.34826 | 8.36938 | 39929 ft | 452 kts | 26° |
| 2026-04-21 15:53 | 42.40431 | 8.40554 | 39931 ft | 443 kts | 16° |
| 2026-04-21 15:53 | 42.46177 | 8.43639 | 39919 ft | 444 kts | 15° |
| 2026-04-21 15:54 | 42.51885 | 8.46748 | 39915 ft | 445 kts | 16° |
| 2026-04-21 15:54 | 42.57631 | 8.49934 | 39915 ft | 445 kts | 16° |
| 2026-04-21 15:55 | 42.63367 | 8.53136 | 39915 ft | 445 kts | 17° |
| 2026-04-21 15:55 | 42.69107 | 8.56350 | 39919 ft | 446 kts | 16° |
| 2026-04-21 15:56 | 42.74809 | 8.59547 | 39919 ft | 446 kts | 16° |
| 2026-04-21 15:56 | 42.80560 | 8.62777 | 39919 ft | 446 kts | 16° |
| 2026-04-21 15:57 | 42.86264 | 8.65987 | 39915 ft | 446 kts | 16° |
| 2026-04-21 15:57 | 42.92007 | 8.69223 | 39916 ft | 446 kts | 16° |
| 2026-04-21 15:58 | 42.97741 | 8.72455 | 39916 ft | 445 kts | 16° |
| 2026-04-21 15:58 | 43.03441 | 8.75674 | 39918 ft | 445 kts | 16° |
| 2026-04-21 15:59 | 43.09170 | 8.78919 | 39916 ft | 445 kts | 16° |
| 2026-04-21 15:59 | 43.14887 | 8.82161 | 39918 ft | 445 kts | 16° |
| 2026-04-21 16:00 | 43.20619 | 8.85420 | 39916 ft | 445 kts | 16° |
| 2026-04-21 16:00 | 43.26312 | 8.88661 | 39918 ft | 446 kts | 17° |
| 2026-04-21 16:01 | 43.32052 | 8.91937 | 39917 ft | 446 kts | 16° |
| 2026-04-21 16:01 | 43.37824 | 8.95006 | 39908 ft | 440 kts | 8° |
| 2026-04-21 16:02 | 43.43788 | 8.95958 | 39924 ft | 427 kts | 354° |
| 2026-04-21 16:02 | 43.49683 | 8.95844 | 39921 ft | 426 kts | 353° |
| 2026-04-21 16:03 | 43.55636 | 8.95793 | 39927 ft | 427 kts | 354° |
| 2026-04-21 16:03 | 43.61607 | 8.96164 | 39899 ft | 437 kts | 8° |
| 2026-04-21 16:04 | 43.64463 | 8.97594 | 39926 ft | 447 kts | 21° |
| 2026-04-21 16:04 | 43.67101 | 8.99978 | 39907 ft | 459 kts | 36° |
| 2026-04-21 16:04 | 43.71691 | 9.06216 | 39921 ft | 463 kts | 40° |
| 2026-04-21 16:05 | 43.76223 | 9.12577 | 39917 ft | 464 kts | 39° |
| 2026-04-21 16:05 | 43.80781 | 9.18849 | 39916 ft | 465 kts | 39° |
| 2026-04-21 16:06 | 43.85396 | 9.25143 | 39911 ft | 466 kts | 39° |
| 2026-04-21 16:06 | 43.90024 | 9.31466 | 39916 ft | 466 kts | 39° |
| 2026-04-21 16:07 | 43.94649 | 9.37805 | 39917 ft | 467 kts | 39° |
| 2026-04-21 16:07 | 43.99085 | 9.44385 | 39914 ft | 474 kts | 49° |
| 2026-04-21 16:08 | 44.04181 | 9.56348 | 39913 ft | 481 kts | 56° |
| 2026-04-21 16:09 | 44.07435 | 9.64350 | 39697 ft | 471 kts | 56° |
| 2026-04-21 16:09 | 44.09055 | 9.68299 | 39170 ft | 468 kts | 55° |
| 2026-04-21 16:09 | 44.10667 | 9.72204 | 38989 ft | 462 kts | 55° |
| 2026-04-21 16:10 | 44.13922 | 9.80033 | 38936 ft | 472 kts | 55° |
| 2026-04-21 16:10 | 44.17229 | 9.87987 | 38936 ft | 482 kts | 55° |
| 2026-04-21 16:11 | 44.20578 | 9.96091 | 38914 ft | 480 kts | 55° |
| 2026-04-21 16:11 | 44.23338 | 10.02795 | 38910 ft | 478 kts | 55° |
| 2026-04-21 16:12 | 44.26638 | 10.10828 | 38915 ft | 476 kts | 55° |
| 2026-04-21 16:12 | 44.29921 | 10.18839 | 38936 ft | 474 kts | 55° |
| 2026-04-21 16:13 | 44.33198 | 10.26849 | 38948 ft | 473 kts | 55° |
| 2026-04-21 16:13 | 44.36444 | 10.34805 | 38957 ft | 474 kts | 56° |
| 2026-04-21 16:14 | 44.39710 | 10.42843 | 38971 ft | 475 kts | 56° |
| 2026-04-21 16:14 | 44.42979 | 10.50910 | 38982 ft | 476 kts | 56° |
| 2026-04-21 16:15 | 44.46229 | 10.58944 | 38985 ft | 478 kts | 56° |
| 2026-04-21 16:15 | 44.49504 | 10.67072 | 38989 ft | 480 kts | 56° |
| 2026-04-21 16:16 | 44.52787 | 10.75244 | 38981 ft | 481 kts | 56° |
| 2026-04-21 16:16 | 44.56076 | 10.83452 | 38987 ft | 482 kts | 56° |
| 2026-04-21 16:17 | 44.59345 | 10.91635 | 38980 ft | 482 kts | 56° |
| 2026-04-21 16:17 | 44.62627 | 10.99875 | 38967 ft | 482 kts | 56° |
| 2026-04-21 16:18 | 44.65877 | 11.08059 | 38968 ft | 481 kts | 56° |
| 2026-04-21 16:18 | 44.69127 | 11.16266 | 38971 ft | 480 kts | 56° |
| 2026-04-21 16:19 | 44.72369 | 11.24477 | 38977 ft | 479 kts | 56° |
| 2026-04-21 16:19 | 44.75601 | 11.32684 | 38975 ft | 478 kts | 56° |
| 2026-04-21 16:20 | 44.78801 | 11.40833 | 38968 ft | 478 kts | 56° |
| 2026-04-21 16:20 | 44.82006 | 11.49024 | 38974 ft | 477 kts | 56° |
| 2026-04-21 16:21 | 44.85206 | 11.57224 | 38971 ft | 477 kts | 56° |
| 2026-04-21 16:21 | 44.88404 | 11.65439 | 38977 ft | 477 kts | 56° |
| 2026-04-21 16:22 | 44.91574 | 11.73609 | 38984 ft | 477 kts | 57° |
| 2026-04-21 16:22 | 44.94760 | 11.81842 | 38984 ft | 477 kts | 56° |
| 2026-04-21 16:23 | 44.97941 | 11.90088 | 38986 ft | 478 kts | 56° |
| 2026-04-21 16:23 | 45.01102 | 11.98308 | 38994 ft | 478 kts | 57° |
| 2026-04-21 16:24 | 45.04273 | 12.06585 | 38992 ft | 479 kts | 57° |
| 2026-04-21 16:24 | 45.07441 | 12.14881 | 38996 ft | 479 kts | 57° |
| 2026-04-21 16:25 | 45.10613 | 12.23198 | 38995 ft | 480 kts | 57° |
| 2026-04-21 16:25 | 45.13780 | 12.31529 | 38988 ft | 480 kts | 57° |
| 2026-04-21 16:26 | 45.16920 | 12.39815 | 38994 ft | 480 kts | 57° |
| 2026-04-21 16:26 | 45.20075 | 12.48170 | 39001 ft | 479 kts | 57° |
| 2026-04-21 16:27 | 45.23220 | 12.56522 | 39003 ft | 480 kts | 57° |
| 2026-04-21 16:27 | 45.26333 | 12.64824 | 39003 ft | 479 kts | 57° |
| 2026-04-21 16:28 | 45.29465 | 12.73189 | 38993 ft | 479 kts | 57° |
| 2026-04-21 16:28 | 45.32567 | 12.81498 | 38995 ft | 478 kts | 57° |
| 2026-04-21 16:29 | 45.35678 | 12.89868 | 38995 ft | 478 kts | 57° |
| 2026-04-21 16:29 | 45.38783 | 12.98241 | 39003 ft | 476 kts | 57° |
| 2026-04-21 16:30 | 45.41856 | 13.06546 | 39001 ft | 476 kts | 57° |
| 2026-04-21 16:30 | 45.44935 | 13.14900 | 38996 ft | 476 kts | 58° |
| 2026-04-21 16:31 | 45.47967 | 13.23172 | 38878 ft | 460 kts | 58° |
| 2026-04-21 16:31 | 45.49430 | 13.27173 | 38613 ft | 451 kts | 57° |
| 2026-04-21 16:31 | 45.50861 | 13.31077 | 38268 ft | 447 kts | 57° |
| 2026-04-21 16:31 | 45.52293 | 13.34994 | 38013 ft | 443 kts | 57° |
| 2026-04-21 16:32 | 45.53725 | 13.38907 | 38023 ft | 445 kts | 57° |
| 2026-04-21 16:32 | 45.56600 | 13.46787 | 38008 ft | 448 kts | 57° |
| 2026-04-21 16:33 | 45.59571 | 13.54548 | 37985 ft | 441 kts | 51° |
| 2026-04-21 16:33 | 45.63042 | 13.61663 | 37986 ft | 437 kts | 49° |
| 2026-04-21 16:34 | 45.66588 | 13.68709 | 38002 ft | 435 kts | 49° |
| 2026-04-21 16:34 | 45.70093 | 13.75769 | 38003 ft | 435 kts | 49° |
| 2026-04-21 16:35 | 45.73548 | 13.82814 | 37997 ft | 436 kts | 49° |
| 2026-04-21 16:35 | 45.77030 | 13.89968 | 38005 ft | 438 kts | 49° |
| 2026-04-21 16:36 | 45.80517 | 13.97152 | 38000 ft | 439 kts | 50° |
| 2026-04-21 16:36 | 45.83989 | 14.04339 | 38002 ft | 442 kts | 50° |
| 2026-04-21 16:37 | 45.87486 | 14.11596 | 38003 ft | 442 kts | 50° |
| 2026-04-21 16:37 | 45.90989 | 14.18867 | 38026 ft | 442 kts | 50° |
| 2026-04-21 16:38 | 45.94452 | 14.26083 | 38031 ft | 441 kts | 50° |
| 2026-04-21 16:38 | 45.97929 | 14.33354 | 38031 ft | 441 kts | 50° |
| 2026-04-21 16:39 | 46.01411 | 14.40647 | 38039 ft | 440 kts | 50° |
| 2026-04-21 16:39 | 46.04859 | 14.47883 | 38041 ft | 440 kts | 50° |
| 2026-04-21 16:40 | 46.08324 | 14.55165 | 38051 ft | 440 kts | 50° |
| 2026-04-21 16:40 | 46.11778 | 14.62440 | 38042 ft | 439 kts | 51° |
| 2026-04-21 16:41 | 46.14640 | 14.68487 | 38050 ft | 439 kts | 51° |
| 2026-04-21 16:41 | 46.18665 | 14.77021 | 38041 ft | 439 kts | 51° |
| 2026-04-21 16:42 | 46.22077 | 14.84271 | 38046 ft | 439 kts | 51° |
| 2026-04-21 16:42 | 46.25493 | 14.91566 | 38055 ft | 438 kts | 51° |
| 2026-04-21 16:43 | 46.28911 | 14.98874 | 38056 ft | 438 kts | 51° |
| 2026-04-21 16:43 | 46.32317 | 15.06183 | 38070 ft | 438 kts | 52° |
| 2026-04-21 16:44 | 46.35701 | 15.13453 | 38061 ft | 438 kts | 51° |
| 2026-04-21 16:44 | 46.39106 | 15.20776 | 38063 ft | 438 kts | 52° |
| 2026-04-21 16:45 | 46.42502 | 15.28121 | 38069 ft | 439 kts | 52° |
| 2026-04-21 16:45 | 46.45933 | 15.35529 | 37901 ft | 453 kts | 52° |
| 2026-04-21 16:45 | 46.47722 | 15.39406 | 37375 ft | 471 kts | 52° |
| 2026-04-21 16:46 | 46.49531 | 15.43341 | 36765 ft | 472 kts | 52° |
| 2026-04-21 16:46 | 46.51374 | 15.47356 | 36146 ft | 471 kts | 51° |
| 2026-04-21 16:46 | 46.53371 | 15.50998 | 35441 ft | 463 kts | 37° |
| 2026-04-21 16:46 | 46.55974 | 15.53681 | 34674 ft | 451 kts | 19° |
| 2026-04-21 16:47 | 46.58828 | 15.55483 | 33972 ft | 447 kts | 15° |
| 2026-04-21 16:47 | 46.61686 | 15.57177 | 33209 ft | 448 kts | 14° |
| 2026-04-21 16:47 | 46.64590 | 15.58882 | 32470 ft | 449 kts | 15° |
| 2026-04-21 16:47 | 46.67489 | 15.60598 | 31925 ft | 445 kts | 15° |
| 2026-04-21 16:48 | 46.70344 | 15.62311 | 31385 ft | 441 kts | 15° |
| 2026-04-21 16:48 | 46.73124 | 15.63996 | 30858 ft | 437 kts | 15° |
| 2026-04-21 16:48 | 46.75929 | 15.65710 | 30327 ft | 433 kts | 15° |
| 2026-04-21 16:48 | 46.78706 | 15.67413 | 29803 ft | 430 kts | 15° |
| 2026-04-21 16:49 | 46.81421 | 15.69084 | 29272 ft | 426 kts | 16° |
| 2026-04-21 16:49 | 46.84141 | 15.70760 | 28735 ft | 422 kts | 16° |
| 2026-04-21 16:49 | 46.86836 | 15.72423 | 28199 ft | 418 kts | 17° |
| 2026-04-21 16:49 | 46.89509 | 15.74073 | 27672 ft | 414 kts | 17° |
| 2026-04-21 16:50 | 46.92159 | 15.75710 | 27072 ft | 412 kts | 17° |
| 2026-04-21 16:50 | 46.94800 | 15.77342 | 26448 ft | 410 kts | 17° |
| 2026-04-21 16:50 | 46.97392 | 15.78945 | 25899 ft | 407 kts | 18° |
| 2026-04-21 16:50 | 46.99998 | 15.80560 | 25406 ft | 402 kts | 18° |
| 2026-04-21 16:51 | 47.02564 | 15.82151 | 24916 ft | 397 kts | 18° |
| 2026-04-21 16:51 | 47.05094 | 15.83722 | 24388 ft | 393 kts | 18° |
| 2026-04-21 16:51 | 47.07602 | 15.85280 | 23869 ft | 390 kts | 19° |
| 2026-04-21 16:51 | 47.10091 | 15.86828 | 23354 ft | 386 kts | 19° |
| 2026-04-21 16:52 | 47.12554 | 15.88361 | 22835 ft | 382 kts | 19° |
| 2026-04-21 16:52 | 47.14958 | 15.89859 | 22330 ft | 378 kts | 19° |
| 2026-04-21 16:52 | 47.16591 | 15.90877 | 21969 ft | 376 kts | 19° |
| 2026-04-21 16:52 | 47.19769 | 15.92860 | 21280 ft | 373 kts | 19° |
| 2026-04-21 16:53 | 47.22153 | 15.94350 | 20759 ft | 370 kts | 19° |
| 2026-04-21 16:53 | 47.24516 | 15.95829 | 20264 ft | 366 kts | 19° |
| 2026-04-21 16:53 | 47.26849 | 15.97289 | 19749 ft | 363 kts | 19° |
| 2026-04-21 16:53 | 47.29165 | 15.98741 | 19260 ft | 360 kts | 20° |
| 2026-04-21 16:54 | 47.31471 | 16.00188 | 18752 ft | 357 kts | 20° |
| 2026-04-21 16:54 | 47.33718 | 16.01598 | 18236 ft | 355 kts | 20° |
| 2026-04-21 16:54 | 47.35900 | 16.03316 | 17724 ft | 356 kts | 32° |
| 2026-04-21 16:54 | 47.37765 | 16.05727 | 17255 ft | 357 kts | 45° |
| 2026-04-21 16:55 | 47.39263 | 16.08648 | 16794 ft | 355 kts | 53° |
| 2026-04-21 16:55 | 47.40615 | 16.11681 | 16302 ft | 353 kts | 54° |
| 2026-04-21 16:55 | 47.41946 | 16.14726 | 15810 ft | 350 kts | 54° |
| 2026-04-21 16:55 | 47.43243 | 16.17700 | 15356 ft | 347 kts | 54° |
| 2026-04-21 16:56 | 47.44547 | 16.20680 | 14906 ft | 343 kts | 54° |
| 2026-04-21 16:56 | 47.45846 | 16.23637 | 14417 ft | 341 kts | 54° |
| 2026-04-21 16:56 | 47.47140 | 16.26572 | 13956 ft | 338 kts | 54° |
| 2026-04-21 16:56 | 47.48418 | 16.29466 | 13496 ft | 335 kts | 54° |
| 2026-04-21 16:57 | 47.49689 | 16.32343 | 13032 ft | 332 kts | 54° |
| 2026-04-21 16:57 | 47.50948 | 16.35191 | 12584 ft | 329 kts | 54° |
| 2026-04-21 16:57 | 47.52194 | 16.38015 | 12139 ft | 326 kts | 54° |
| 2026-04-21 16:57 | 47.53424 | 16.40803 | 11827 ft | 319 kts | 54° |
| 2026-04-21 16:58 | 47.54596 | 16.43466 | 11731 ft | 306 kts | 54° |
| 2026-04-21 16:58 | 47.55730 | 16.46048 | 11632 ft | 293 kts | 54° |
| 2026-04-21 16:58 | 47.56822 | 16.48531 | 11552 ft | 281 kts | 54° |
| 2026-04-21 16:58 | 47.57866 | 16.50910 | 11269 ft | 272 kts | 54° |
| 2026-04-21 16:59 | 47.58891 | 16.53239 | 10789 ft | 267 kts | 54° |
| 2026-04-21 16:59 | 47.59893 | 16.55521 | 10291 ft | 260 kts | 54° |
| 2026-04-21 16:59 | 47.60868 | 16.57746 | 9796 ft | 255 kts | 54° |
| 2026-04-21 16:59 | 47.61813 | 16.59902 | 9291 ft | 250 kts | 54° |
| 2026-04-21 17:00 | 47.62748 | 16.62038 | 8788 ft | 245 kts | 54° |
| 2026-04-21 17:00 | 47.63668 | 16.64140 | 8288 ft | 241 kts | 54° |
| 2026-04-21 17:00 | 47.64283 | 16.65546 | 7949 ft | 239 kts | 54° |
| 2026-04-21 17:00 | 47.65474 | 16.68273 | 7294 ft | 236 kts | 54° |
| 2026-04-21 17:01 | 47.66064 | 16.69624 | 6958 ft | 234 kts | 54° |
| 2026-04-21 17:01 | 47.66945 | 16.71644 | 6456 ft | 232 kts | 54° |
| 2026-04-21 17:01 | 47.67845 | 16.73599 | 6084 ft | 222 kts | 46° |
| 2026-04-21 17:01 | 47.69575 | 16.74604 | 5996 ft | 205 kts | 355° |
| 2026-04-21 17:02 | 47.70532 | 16.74419 | 5979 ft | 205 kts | 353° |
| 2026-04-21 17:02 | 47.71948 | 16.74228 | 5974 ft | 204 kts | 359° |
| 2026-04-21 17:02 | 47.73345 | 16.74130 | 5966 ft | 204 kts | 352° |
| 2026-04-21 17:02 | 47.74721 | 16.73614 | 5976 ft | 204 kts | 344° |
| 2026-04-21 17:03 | 47.76080 | 16.73002 | 5980 ft | 204 kts | 345° |
| 2026-04-21 17:03 | 47.77444 | 16.72416 | 5980 ft | 204 kts | 345° |
| 2026-04-21 17:03 | 47.78813 | 16.71838 | 5975 ft | 205 kts | 345° |
| 2026-04-21 17:03 | 47.80187 | 16.71258 | 5981 ft | 205 kts | 345° |
| 2026-04-21 17:04 | 47.81557 | 16.70678 | 5987 ft | 205 kts | 345° |
| 2026-04-21 17:04 | 47.82945 | 16.70092 | 5779 ft | 209 kts | 345° |
| 2026-04-21 17:04 | 47.84340 | 16.69501 | 5513 ft | 207 kts | 345° |
| 2026-04-21 17:04 | 47.85710 | 16.68922 | 5248 ft | 202 kts | 345° |
| 2026-04-21 17:05 | 47.87046 | 16.68356 | 4985 ft | 196 kts | 345° |
| 2026-04-21 17:05 | 47.88302 | 16.67825 | 4735 ft | 185 kts | 346° |
| 2026-04-21 17:05 | 47.89512 | 16.67313 | 4490 ft | 177 kts | 346° |
| 2026-04-21 17:05 | 47.90695 | 16.66814 | 4265 ft | 176 kts | 346° |
| 2026-04-21 17:06 | 47.91872 | 16.66316 | 4030 ft | 176 kts | 346° |
| 2026-04-21 17:06 | 47.93052 | 16.65819 | 3796 ft | 176 kts | 346° |
| 2026-04-21 17:06 | 47.94222 | 16.65323 | 3555 ft | 174 kts | 346° |
| 2026-04-21 17:06 | 47.95379 | 16.64834 | 3340 ft | 170 kts | 346° |
| 2026-04-21 17:07 | 47.96497 | 16.64360 | 3116 ft | 164 kts | 346° |
| 2026-04-21 17:07 | 47.97574 | 16.63903 | 2907 ft | 157 kts | 348° |
| 2026-04-21 17:07 | 47.98655 | 16.63449 | 2697 ft | 165 kts | 348° |
| 2026-04-21 17:07 | 47.99766 | 16.62982 | 2477 ft | 170 kts | 348° |
| 2026-04-21 17:08 | 48.00858 | 16.62518 | 2275 ft | 154 kts | 347° |
| 2026-04-21 17:08 | 48.01846 | 16.62105 | 2050 ft | 143 kts | 345° |
| 2026-04-21 17:08 | 48.02778 | 16.61706 | 1873 ft | 135 kts | 343° |
| 2026-04-21 17:08 | 48.03625 | 16.61347 | 1694 ft | 120 kts | 345° |
| 2026-04-21 17:09 | 48.05217 | 16.60677 | 1387 ft | 120 kts | 345° |
| 2026-04-21 17:09 | 48.06019 | 16.60343 | 1219 ft | 119 kts | 345° |
| 2026-04-21 17:09 | 48.06813 | 16.60006 | 1074 ft | 118 kts | 345° |
| 2026-04-21 17:10 | 48.07602 | 16.59670 | 900 ft | 118 kts | 345° |
| 2026-04-21 17:10 | 48.08386 | 16.59336 | 755 ft | 117 kts | 345° |
| 2026-04-21 17:10 | 48.09170 | 16.59003 | 620 ft | 115 kts | 345° |
| 2026-04-21 17:10 | 48.09852 | 16.58717 | 608 ft | 85 kts | 344° |
| 2026-04-21 17:11 | 48.10325 | 16.58518 | 618 ft | 63 kts | 344° |
| 2026-04-21 17:11 | 48.10714 | 16.58351 | 612 ft | 54 kts | 344° |
| 2026-04-21 17:11 | 48.10929 | 16.58250 | 615 ft | 21 kts | 331° |
| 2026-04-21 17:11 | 48.11032 | 16.58094 | 608 ft | 21 kts | 304° |
| 2026-04-21 17:12 | 48.11098 | 16.57926 | 608 ft | 17 kts | 317° |
| 2026-04-21 17:12 | 48.11206 | 16.57865 | 614 ft | 17 kts | 345° |
| 2026-04-21 17:12 | 48.11319 | 16.57817 | 611 ft | 18 kts | 343° |
| 2026-04-21 17:12 | 48.11444 | 16.57761 | 615 ft | 20 kts | 345° |
| 2026-04-21 17:13 | 48.11587 | 16.57703 | 608 ft | 22 kts | 345° |
| 2026-04-21 17:13 | 48.11743 | 16.57637 | 608 ft | 24 kts | 344° |
| 2026-04-21 17:13 | 48.11827 | 16.57520 | 608 ft | 18 kts | 263° |
| 2026-04-21 17:13 | 48.11810 | 16.57368 | 612 ft | 14 kts | 284° |
| 2026-04-21 17:14 | 48.11846 | 16.57239 | 608 ft | 13 kts | 294° |
| 2026-04-21 17:14 | 48.11865 | 16.57110 | 610 ft | 13 kts | 295° |
| 2026-04-21 17:14 | 48.11903 | 16.56992 | 608 ft | 13 kts | 296° |
| 2026-04-21 17:14 | 48.11936 | 16.56890 | 617 ft | 6 kts | 295° |
| 2026-04-21 17:15 | 48.11915 | 16.56848 | 608 ft | 6 kts | 199° |
| 2026-04-21 17:15 | 48.11881 | 16.56824 | 608 ft | 0 kts | 206° |